Time;durP1;ratioP1;P1;durP2;ratioP2;P2;SDS_P1;SDS_P2;PMS_P1;PMS_P2;Temp;Humidity;BMP_temperature;BMP_pressure;BME280_temperature;BME280_humidity;BME280_pressure;Samples;Min_cycle;Max_cycle;Signal;HPM_P1;HPM_P2
2023/04/30 00:02:17;;;;;;;25.90;18.70;;;;;;;10.12;74.76;100431.08;129542;1261;114770;-66
2023/04/30 00:05:19;;;;;;;26.60;16.90;;;;;;;10.10;74.75;100437.94;129455;1257;114774;-66
2023/04/30 00:08:21;;;;;;;22.40;16.40;;;;;;;10.07;74.61;100434.69;129270;1257;114772;-67
2023/04/30 00:11:24;;;;;;;25.40;18.60;;;;;;;10.06;74.63;100435.63;129736;1264;114731;-66
2023/04/30 00:14:27;;;;;;;26.00;18.30;;;;;;;10.04;74.85;100438.72;129467;1271;114739;-64
2023/04/30 00:17:29;;;;;;;23.50;17.10;;;;;;;10.02;74.77;100439.88;129520;1259;114733;-65
2023/04/30 00:20:34;;;;;;;27.90;17.40;;;;;;;10.01;74.50;100440.31;129437;1281;129769;-65
2023/04/30 00:23:36;;;;;;;29.70;17.90;;;;;;;9.99;74.63;100438.60;129463;1281;114794;-66
2023/04/30 00:26:38;;;;;;;24.30;17.80;;;;;;;9.99;74.90;100442.01;129580;1263;115347;-65
2023/04/30 00:29:41;;;;;;;22.00;16.70;;;;;;;9.99;74.85;100446.13;129620;1261;114782;-65
2023/04/30 00:32:44;;;;;;;27.50;17.80;;;;;;;9.97;74.82;100447.63;129543;1263;114745;-65
2023/04/30 00:35:46;;;;;;;21.70;16.30;;;;;;;9.96;74.89;100452.12;129701;1273;114634;-67
2023/04/30 00:38:49;;;;;;;24.00;16.90;;;;;;;9.95;74.76;100454.86;129458;1258;114848;-65
2023/04/30 00:41:51;;;;;;;25.30;16.50;;;;;;;9.93;74.49;100460.65;129556;1264;115947;-65
2023/04/30 00:44:54;;;;;;;17.80;15.10;;;;;;;9.91;74.51;100459.52;129503;1264;115408;-64
2023/04/30 00:47:55;;;;;;;24.50;16.50;;;;;;;9.89;74.32;100466.52;129495;1264;114816;-65
2023/04/30 00:50:58;;;;;;;20.80;16.10;;;;;;;9.88;74.67;100470.48;129448;1258;115017;-65
2023/04/30 00:54:02;;;;;;;28.40;17.00;;;;;;;9.88;74.42;100473.17;129474;1260;114899;-66
2023/04/30 00:57:05;;;;;;;22.40;16.40;;;;;;;9.86;74.43;100472.17;129546;1270;114824;-66
2023/04/30 01:00:09;;;;;;;24.50;16.30;;;;;;;9.85;74.30;100479.02;129251;1275;128045;-66
2023/04/30 01:03:15;;;;;;;21.60;16.40;;;;;;;9.84;74.62;100482.80;129456;1274;115265;-65
2023/04/30 01:06:16;;;;;;;;;;;;;;;9.82;74.37;100485.58;129297;1265;114822;-65
2023/04/30 01:09:19;;;;;;;21.20;15.20;;;;;;;9.80;74.32;100486.91;129538;1263;114797;-65
2023/04/30 01:13:07;;;;;;;22.00;15.20;;;;;;;9.77;74.25;100491.11;129444;1262;114762;-65
2023/04/30 01:16:23;;;;;;;25.00;15.90;;;;;;;9.77;74.37;100493.12;129300;1265;128849;-67
2023/04/30 01:19:28;;;;;;;21.20;15.80;;;;;;;9.75;74.31;100488.90;129319;1277;115220;-67
2023/04/30 01:22:52;;;;;;;25.00;16.30;;;;;;;9.74;74.46;100490.01;129139;1257;412044;-66
2023/04/30 01:26:25;;;;;;;21.60;16.00;;;;;;;9.73;74.52;100493.09;129452;1261;114787;-66
2023/04/30 01:29:28;;;;;;;22.10;16.00;;;;;;;9.70;74.42;100497.11;129764;1264;115096;-67
2023/04/30 01:32:30;;;;;;;19.60;15.40;;;;;;;9.68;74.52;100497.05;129408;1264;114819;-67
2023/04/30 01:36:01;;;;;;;21.50;15.90;;;;;;;9.65;74.38;100500.73;129359;1271;114717;-65
2023/04/30 01:39:22;;;;;;;25.60;16.40;;;;;;;9.61;74.47;100502.86;129302;1267;114888;-67
2023/04/30 01:42:32;;;;;;;22.60;16.10;;;;;;;9.56;74.55;100507.69;129507;1281;115308;-65
2023/04/30 01:46:22;;;;;;;23.10;15.80;;;;;;;9.52;74.49;100506.10;129386;1265;114715;-65
2023/04/30 01:49:58;;;;;;;24.90;17.40;;;;;;;9.45;74.48;100503.89;129119;1285;128783;-66
2023/04/30 01:53:02;;;;;;;20.50;16.50;;;;;;;9.37;74.48;100504.55;128899;1270;115382;-65
2023/04/30 01:56:05;;;;;;;24.10;16.60;;;;;;;9.29;74.58;100506.34;129201;1266;115320;-67
2023/04/30 01:59:08;;;;;;;24.50;15.10;;;;;;;9.22;74.46;100505.55;129045;1269;115174;-66
2023/04/30 02:02:10;;;;;;;24.40;15.20;;;;;;;9.14;74.40;100512.46;129422;1267;114922;-66
2023/04/30 02:05:12;;;;;;;22.30;16.00;;;;;;;9.05;74.39;100511.54;129103;1267;114843;-66
2023/04/30 02:08:15;;;;;;;22.00;16.40;;;;;;;8.96;74.48;100518.16;129063;1267;115218;-67
2023/04/30 02:11:17;;;;;;;19.10;15.70;;;;;;;8.87;74.88;100518.14;128857;1286;115415;-67
2023/04/30 02:14:19;;;;;;;19.10;15.30;;;;;;;8.78;74.52;100525.62;129041;1267;115200;-68
2023/04/30 02:17:21;;;;;;;20.70;16.00;;;;;;;8.67;74.77;100529.93;129431;1267;115481;-65
2023/04/30 02:20:24;;;;;;;21.80;16.40;;;;;;;8.57;74.78;100530.14;129204;1275;114827;-67
2023/04/30 02:23:26;;;;;;;24.80;17.50;;;;;;;8.46;74.44;100531.06;129243;1267;114911;-70
2023/04/30 02:26:28;;;;;;;21.20;16.50;;;;;;;8.35;75.05;100530.56;129825;1258;114804;-68
2023/04/30 02:29:31;;;;;;;21.90;17.20;;;;;;;8.23;75.01;100533.30;129737;1281;128887;-69
2023/04/30 02:32:33;;;;;;;20.60;16.10;;;;;;;8.13;74.93;100534.92;129557;1261;114801;-68
2023/04/30 02:35:35;;;;;;;27.40;18.30;;;;;;;8.02;74.77;100535.11;129671;1258;114774;-67
2023/04/30 02:38:37;;;;;;;23.50;16.90;;;;;;;7.90;75.21;100535.86;129497;1261;114733;-68
2023/04/30 02:41:40;;;;;;;34.50;18.90;;;;;;;7.81;74.99;100538.70;129670;1261;114734;-66
2023/04/30 02:44:42;;;;;;;25.20;18.20;;;;;;;7.69;75.35;100537.48;130093;1264;114783;-68
2023/04/30 02:47:44;;;;;;;27.00;18.70;;;;;;;7.58;75.37;100536.42;129348;1264;114731;-69
2023/04/30 02:50:46;;;;;;;23.30;18.50;;;;;;;7.49;75.65;100538.34;129425;1257;115210;-67
2023/04/30 02:53:49;;;;;;;27.90;18.60;;;;;;;7.37;75.65;100542.44;129516;1280;115227;-68
2023/04/30 02:56:52;;;;;;;26.00;17.90;;;;;;;7.26;75.54;100548.27;129428;1261;114699;-68
2023/04/30 02:59:54;;;;;;;25.00;18.30;;;;;;;7.17;75.79;100555.70;129441;1264;115330;-68
2023/04/30 03:02:56;;;;;;;26.10;17.70;;;;;;;7.08;75.78;100557.41;129360;1261;114731;-67
2023/04/30 03:05:58;;;;;;;29.90;18.30;;;;;;;6.99;76.07;100560.33;129402;1257;114708;-69
2023/04/30 03:09:01;;;;;;;24.20;19.00;;;;;;;6.91;76.15;100563.25;129274;1280;128978;-68
2023/04/30 03:12:03;;;;;;;28.60;18.70;;;;;;;6.83;76.38;100565.61;129352;1264;114889;-69
2023/04/30 03:15:06;;;;;;;26.80;19.60;;;;;;;6.76;76.53;100562.62;129567;1261;114760;-68
2023/04/30 03:18:09;;;;;;;28.00;18.60;;;;;;;6.69;76.50;100567.77;129493;1261;114777;-67
2023/04/30 03:21:12;;;;;;;24.20;18.30;;;;;;;6.63;76.68;100570.27;129668;1261;115245;-68
2023/04/30 03:24:14;;;;;;;23.80;17.10;;;;;;;6.57;76.77;100572.75;129639;1261;114776;-69
2023/04/30 03:27:17;;;;;;;25.40;17.90;;;;;;;6.52;76.84;100579.61;129934;1257;114729;-70
2023/04/30 03:30:20;;;;;;;23.50;17.20;;;;;;;6.48;77.01;100582.55;129503;1280;129752;-69
2023/04/30 03:33:22;;;;;;;28.50;17.70;;;;;;;6.45;77.01;100585.51;129499;1264;114741;-70
2023/04/30 03:36:26;;;;;;;24.10;16.80;;;;;;;6.41;77.32;100594.13;129571;1261;115066;-69
2023/04/30 03:39:28;;;;;;;25.90;17.30;;;;;;;6.37;77.27;100596.52;129536;1257;114775;-68
2023/04/30 03:42:30;;;;;;;23.60;17.30;;;;;;;6.35;77.31;100599.97;129568;1264;114734;-67
2023/04/30 03:45:32;;;;;;;25.60;18.40;;;;;;;6.32;77.40;100600.04;130132;1263;114777;-67
2023/04/30 03:48:34;;;;;;;25.90;17.20;;;;;;;6.30;77.51;100601.15;129595;1281;128712;-67
2023/04/30 03:51:40;;;;;;;27.80;18.30;;;;;;;6.29;77.45;100607.21;129534;1280;115185;-66
2023/04/30 03:54:42;;;;;;;22.40;17.10;;;;;;;6.28;77.67;100616.65;129720;1257;114698;-66
2023/04/30 03:57:45;;;;;;;25.70;18.30;;;;;;;6.28;77.87;100621.29;129522;1258;114702;-66
2023/04/30 04:00:47;;;;;;;21.80;16.10;;;;;;;6.29;77.89;100626.58;129693;1261;115340;-67
2023/04/30 04:03:50;;;;;;;23.50;17.00;;;;;;;6.30;77.85;100630.95;129850;1280;114708;-68
2023/04/30 04:06:52;;;;;;;20.50;16.70;;;;;;;6.31;78.08;100636.96;129724;1272;128877;-64
2023/04/30 04:09:54;;;;;;;31.10;17.00;;;;;;;6.35;78.24;100643.44;129442;1261;115344;-66
2023/04/30 04:12:57;;;;;;;26.60;16.80;;;;;;;6.38;78.24;100646.16;129518;1257;115477;-67
2023/04/30 04:16:00;;;;;;;24.10;17.20;;;;;;;6.43;78.31;100651.40;129623;1261;114889;-67
2023/04/30 04:19:03;;;;;;;23.80;17.60;;;;;;;6.47;78.42;100650.39;129445;1277;114810;-67
2023/04/30 04:22:06;;;;;;;23.00;17.80;;;;;;;6.52;78.63;100657.52;129601;1267;114797;-67
2023/04/30 04:25:09;;;;;;;26.30;18.60;;;;;;;6.59;78.62;100656.29;129897;1273;114761;-66
2023/04/30 04:28:11;;;;;;;24.70;18.00;;;;;;;6.65;78.78;100659.84;129412;1273;114679;-66
2023/04/30 04:31:13;;;;;;;24.60;18.50;;;;;;;6.73;78.65;100666.01;129526;1274;114784;-66
2023/04/30 04:34:16;;;;;;;22.50;17.60;;;;;;;6.81;78.82;100666.15;129479;1274;114711;-65
2023/04/30 04:37:19;;;;;;;26.70;17.30;;;;;;;6.90;78.99;100670.00;129402;1280;114783;-67
2023/04/30 04:40:21;;;;;;;24.40;17.10;;;;;;;6.98;78.82;100674.20;129533;1259;114725;-65
2023/04/30 04:43:24;;;;;;;21.50;15.90;;;;;;;7.07;78.62;100673.74;129636;1257;115164;-65
2023/04/30 04:46:27;;;;;;;21.20;15.70;;;;;;;7.21;78.60;100677.78;129636;1257;114730;-66
2023/04/30 04:49:29;;;;;;;18.50;13.30;;;;;;;7.43;78.79;100683.88;129696;1261;115039;-66
2023/04/30 04:52:31;;;;;;;19.30;14.40;;;;;;;7.98;79.78;100680.91;129620;1258;114883;-68
2023/04/30 04:55:34;;;;;;;19.90;14.10;;;;;;;8.83;79.55;100683.40;129904;1262;114810;-67
2023/04/30 04:58:37;;;;;;;16.00;11.00;;;;;;;9.82;79.32;100688.55;129486;1280;114785;-66
2023/04/30 05:01:40;;;;;;;18.20;11.70;;;;;;;10.76;78.07;100691.27;129562;1280;114809;-67
2023/04/30 05:04:43;;;;;;;13.10;10.20;;;;;;;11.58;76.84;100691.86;129649;1261;114799;-67
2023/04/30 05:07:45;;;;;;;14.90;9.90;;;;;;;12.31;75.70;100700.34;129772;1261;114741;-68
2023/04/30 05:10:47;;;;;;;12.50;10.00;;;;;;;12.96;74.56;100699.16;129702;1261;115202;-69
2023/04/30 05:13:50;;;;;;;14.20;9.20;;;;;;;13.51;73.45;100696.20;129541;1261;114846;-68
2023/04/30 05:16:52;;;;;;;14.30;8.60;;;;;;;14.07;72.43;100695.22;129521;1281;114808;-67
2023/04/30 05:19:54;;;;;;;12.40;8.70;;;;;;;14.46;71.12;100693.83;129770;1258;114702;-67
2023/04/30 05:22:57;;;;;;;13.10;8.20;;;;;;;14.86;70.91;100702.82;129422;1268;129711;-66
2023/04/30 05:25:59;;;;;;;10.30;7.30;;;;;;;15.22;69.46;100696.29;129617;1259;115390;-67
2023/04/30 05:29:01;;;;;;;16.30;8.90;;;;;;;15.49;69.12;100701.63;129558;1271;114932;-67
2023/04/30 05:32:04;;;;;;;16.40;8.50;;;;;;;15.74;68.28;100707.19;129795;1280;114794;-66
2023/04/30 05:35:07;;;;;;;12.00;7.80;;;;;;;15.90;67.37;100710.56;129541;1261;115041;-66
2023/04/30 05:38:09;;;;;;;15.30;8.20;;;;;;;15.94;65.98;100712.77;129491;1261;114825;-66
2023/04/30 05:41:11;;;;;;;11.70;7.60;;;;;;;15.82;65.01;100707.08;129492;1257;114808;-65
2023/04/30 05:44:14;;;;;;;12.00;7.30;;;;;;;15.64;64.57;100713.11;129434;1264;129021;-65
2023/04/30 05:47:16;;;;;;;12.20;7.70;;;;;;;15.54;64.48;100713.40;129376;1261;114773;-67
2023/04/30 05:50:19;;;;;;;10.70;8.60;;;;;;;15.56;64.40;100718.31;129481;1264;115092;-68
2023/04/30 05:53:21;;;;;;;14.50;8.60;;;;;;;15.67;64.15;100721.35;129851;1280;114951;-65
2023/04/30 05:56:24;;;;;;;10.20;7.20;;;;;;;15.90;63.46;100723.31;129511;1267;114860;-66
2023/04/30 05:59:26;;;;;;;11.40;6.80;;;;;;;16.21;63.21;100721.27;129477;1261;114819;-66
2023/04/30 06:02:29;;;;;;;15.50;6.80;;;;;;;16.69;62.62;100717.20;129551;1261;115092;-66
2023/04/30 06:05:31;;;;;;;13.90;7.40;;;;;;;17.01;61.44;100717.73;129519;1261;114710;-65
2023/04/30 06:08:33;;;;;;;13.50;8.00;;;;;;;17.24;60.86;100726.41;129366;1280;115339;-66
2023/04/30 06:11:38;;;;;;;13.90;7.70;;;;;;;17.45;60.16;100729.47;129518;1280;115217;-67
2023/04/30 06:14:44;;;;;;;12.90;7.20;;;;;;;17.71;59.90;100729.55;129425;1258;114784;-66
2023/04/30 06:17:46;;;;;;;9.10;6.30;;;;;;;18.02;58.68;100731.16;129326;1280;114884;-68
2023/04/30 06:20:49;;;;;;;8.00;5.90;;;;;;;18.25;58.36;100731.45;129355;1263;114773;-68
2023/04/30 06:23:52;;;;;;;8.80;6.50;;;;;;;18.56;57.76;100734.33;129434;1280;114726;-67
2023/04/30 06:26:54;;;;;;;9.40;6.30;;;;;;;18.82;57.10;100741.59;129543;1261;115082;-67
2023/04/30 06:29:56;;;;;;;11.30;7.10;;;;;;;18.96;56.38;100735.98;129871;1261;114925;-68
2023/04/30 06:32:58;;;;;;;11.00;6.40;;;;;;;18.98;55.74;100739.29;129396;1280;114720;-68
2023/04/30 06:36:01;;;;;;;8.20;6.10;;;;;;;19.04;55.22;100742.62;129486;1280;114788;-66
2023/04/30 06:39:04;;;;;;;8.60;6.50;;;;;;;19.06;54.89;100743.95;129677;1276;114726;-67
2023/04/30 06:42:06;;;;;;;11.30;6.00;;;;;;;19.17;54.68;100749.27;129704;1280;128840;-66
2023/04/30 06:45:09;;;;;;;9.60;6.40;;;;;;;19.16;53.87;100750.41;129721;1264;114766;-67
2023/04/30 06:48:11;;;;;;;11.30;6.30;;;;;;;19.16;53.86;100751.10;129850;1261;114772;-66
2023/04/30 06:51:13;;;;;;;16.40;7.50;;;;;;;19.26;53.69;100746.36;129600;1261;114785;-67
2023/04/30 06:54:16;;;;;;;11.20;7.10;;;;;;;19.31;53.07;100749.75;129561;1266;114724;-67
2023/04/30 06:57:19;;;;;;;15.20;7.10;;;;;;;19.36;52.81;100749.93;129876;1273;115338;-68
2023/04/30 07:00:21;;;;;;;12.10;5.70;;;;;;;19.37;52.35;100750.58;129796;1273;115124;-68
2023/04/30 07:03:24;;;;;;;9.80;6.30;;;;;;;19.28;51.88;100753.95;129512;1257;115946;-68
2023/04/30 07:06:26;;;;;;;8.50;5.80;;;;;;;19.18;51.56;100755.64;129612;1280;114752;-66
2023/04/30 07:09:29;;;;;;;11.70;5.60;;;;;;;19.16;51.38;100757.30;129521;1261;114730;-70
2023/04/30 07:12:31;;;;;;;8.40;5.70;;;;;;;19.19;51.49;100761.38;129512;1280;114816;-70
2023/04/30 07:15:33;;;;;;;9.20;5.60;;;;;;;19.32;50.82;100765.30;129556;1280;114701;-67
2023/04/30 07:18:36;;;;;;;10.10;5.60;;;;;;;19.46;50.62;100772.52;129395;1265;114942;-66
2023/04/30 07:21:39;;;;;;;9.00;6.10;;;;;;;19.54;49.82;100776.55;129272;1264;114916;-70
2023/04/30 07:24:41;;;;;;;8.20;4.90;;;;;;;19.49;49.31;100772.05;129223;1267;114859;-69
2023/04/30 07:27:44;;;;;;;8.90;5.30;;;;;;;19.55;49.37;100775.54;129344;1265;114832;-69
2023/04/30 07:30:46;;;;;;;9.90;5.90;;;;;;;19.58;48.81;100772.80;129231;1267;115458;-69
2023/04/30 07:33:49;;;;;;;7.10;4.90;;;;;;;19.74;48.66;100769.36;129104;1270;114912;-69
2023/04/30 07:36:51;;;;;;;9.00;5.00;;;;;;;19.89;48.58;100777.75;129173;1278;114916;-70
2023/04/30 07:39:54;;;;;;;8.50;5.10;;;;;;;20.12;48.22;100778.98;129148;1276;114979;-70
2023/04/30 07:42:56;;;;;;;8.50;5.10;;;;;;;20.27;47.37;100777.62;129315;1267;114857;-69
2023/04/30 07:45:59;;;;;;;12.40;5.00;;;;;;;20.35;47.62;100776.22;129259;1280;115264;-69
2023/04/30 07:49:02;;;;;;;8.50;4.90;;;;;;;20.39;46.50;100784.96;129436;1261;114740;-66
2023/04/30 07:52:09;;;;;;;10.80;5.20;;;;;;;20.13;45.76;100786.38;129535;1276;115178;-70
2023/04/30 07:55:12;;;;;;;8.60;4.80;;;;;;;19.95;45.72;100784.38;129319;1265;114823;-69
2023/04/30 07:58:14;;;;;;;8.40;4.60;;;;;;;20.08;46.28;100779.92;129424;1258;114733;-70
2023/04/30 08:01:17;;;;;;;6.80;3.70;;;;;;;20.30;45.90;100790.08;129431;1281;114748;-69
2023/04/30 08:04:19;;;;;;;8.40;4.50;;;;;;;19.84;45.23;100791.73;129594;1261;114813;-70
2023/04/30 08:07:24;;;;;;;9.20;3.90;;;;;;;19.45;44.93;100796.09;129857;1261;114781;-70
2023/04/30 08:10:26;;;;;;;7.80;4.30;;;;;;;19.09;44.94;100804.14;129521;1261;114906;-71
2023/04/30 08:13:30;;;;;;;12.40;4.70;;;;;;;18.87;44.97;100802.27;129930;1261;114736;-69
2023/04/30 08:16:32;;;;;;;7.80;4.20;;;;;;;18.92;45.05;100802.34;129645;1280;114717;-69
2023/04/30 08:19:35;;;;;;;8.30;4.10;;;;;;;19.15;45.26;100807.48;129433;1277;114688;-70
2023/04/30 08:22:38;;;;;;;7.60;4.50;;;;;;;19.52;45.28;100798.10;129605;1264;114827;-68
2023/04/30 08:25:40;;;;;;;8.50;4.60;;;;;;;19.72;45.23;100799.42;129504;1261;114801;-71
2023/04/30 08:28:42;;;;;;;13.00;4.90;;;;;;;19.84;45.20;100803.20;129550;1258;115171;-70
2023/04/30 08:31:48;;;;;;;5.70;4.30;;;;;;;19.71;44.34;100805.69;129599;1261;114747;-71
2023/04/30 08:34:50;;;;;;;7.90;4.50;;;;;;;19.24;43.99;100806.48;129597;1261;114731;-69
2023/04/30 08:37:53;;;;;;;9.00;4.30;;;;;;;19.12;44.90;100806.30;129801;1280;114800;-69
2023/04/30 08:41:20;;;;;;;7.80;5.40;;;;;;;19.06;44.79;100802.02;129446;1274;114748;-70
2023/04/30 08:44:23;;;;;;;7.90;4.50;;;;;;;18.84;44.54;100808.40;129509;1261;114804;-70
2023/04/30 08:47:25;;;;;;;9.60;5.20;;;;;;;18.85;44.47;100811.24;129742;1276;115451;-71
2023/04/30 08:50:28;;;;;;;8.30;4.30;;;;;;;18.92;44.76;100809.45;129396;1280;114900;-71
2023/04/30 08:53:34;;;;;;;8.20;3.90;;;;;;;18.90;43.32;100811.42;129474;1277;114727;-65
2023/04/30 08:56:36;;;;;;;8.60;4.30;;;;;;;18.68;44.03;100814.70;129564;1258;115196;-71
2023/04/30 08:59:39;;;;;;;8.30;4.40;;;;;;;18.72;44.16;100815.67;129608;1261;114774;-70
2023/04/30 09:02:42;;;;;;;8.20;4.00;;;;;;;18.61;43.87;100815.92;129615;1280;114837;-68
2023/04/30 09:05:44;;;;;;;8.50;3.80;;;;;;;18.54;43.65;100813.72;129618;1257;114807;-68
2023/04/30 09:08:49;;;;;;;8.60;4.80;;;;;;;18.59;43.75;100815.02;129533;1258;114854;-67
2023/04/30 09:11:51;;;;;;;6.20;3.30;;;;;;;18.57;43.63;100816.55;129766;1276;127872;-68
2023/04/30 09:15:02;;;;;;;9.20;3.90;;;;;;;18.54;43.25;100820.58;129624;1258;114906;-68
2023/04/30 09:18:16;;;;;;;8.10;4.10;;;;;;;18.55;43.54;100815.65;129509;1259;114758;-68
2023/04/30 09:21:31;;;;;;;8.90;3.90;;;;;;;18.51;43.37;100818.82;129543;1261;114813;-68
2023/04/30 09:24:46;;;;;;;9.40;3.20;;;;;;;18.50;43.62;100823.09;129506;1264;114871;-69
2023/04/30 09:27:48;;;;;;;8.90;3.70;;;;;;;18.54;43.14;100829.65;129426;1280;127700;-67
2023/04/30 09:30:51;;;;;;;5.70;3.40;;;;;;;18.58;43.31;100830.96;129444;1280;115442;-68
2023/04/30 09:33:53;;;;;;;9.00;3.10;;;;;;;18.71;42.79;100835.83;129488;1280;114711;-68
2023/04/30 09:36:56;;;;;;;7.90;3.70;;;;;;;18.66;42.36;100831.98;129521;1276;115178;-66
2023/04/30 09:39:59;;;;;;;7.20;3.20;;;;;;;18.54;42.84;100835.23;129778;1258;114728;-68
2023/04/30 09:43:02;;;;;;;6.40;3.40;;;;;;;18.39;42.20;100829.86;129636;1277;115258;-68
2023/04/30 09:46:05;;;;;;;7.50;3.00;;;;;;;18.26;42.63;100828.97;129840;1274;114727;-68
2023/04/30 09:49:10;;;;;;;8.10;3.20;;;;;;;18.10;42.04;100825.98;129589;1258;114717;-67
2023/04/30 09:52:14;;;;;;;6.60;3.70;;;;;;;17.88;42.16;100825.20;129566;1257;114880;-68
2023/04/30 09:55:17;;;;;;;8.20;3.00;;;;;;;17.69;42.15;100822.55;129497;1261;114829;-69
2023/04/30 09:58:21;;;;;;;6.80;3.40;;;;;;;17.54;42.18;100822.73;129490;1258;115175;-68
2023/04/30 10:01:27;;;;;;;7.10;2.80;;;;;;;17.36;41.68;100825.61;129419;1280;114786;-67
2023/04/30 10:04:34;;;;;;;10.80;2.80;;;;;;;17.21;42.06;100824.11;129462;1259;115188;-68
2023/04/30 10:07:38;;;;;;;5.30;2.70;;;;;;;17.15;42.15;100817.30;129423;1261;114717;-68
2023/04/30 10:10:42;;;;;;;8.60;3.10;;;;;;;17.01;42.44;100819.69;129534;1279;114864;-66
2023/04/30 10:13:46;;;;;;;4.20;3.10;;;;;;;16.88;41.85;100824.48;129554;1261;115099;-67
2023/04/30 10:16:59;;;;;;;5.90;2.70;;;;;;;16.66;42.01;100814.64;129305;1280;127793;-67
2023/04/30 10:20:06;;;;;;;6.40;3.00;;;;;;;16.42;41.67;100816.20;129430;1277;115289;-68
2023/04/30 10:23:08;;;;;;;9.60;3.10;;;;;;;16.14;42.41;100814.55;129553;1274;114684;-66
2023/04/30 10:26:11;;;;;;;8.80;3.50;;;;;;;16.05;42.76;100814.59;129559;1273;114788;-66
2023/04/30 10:29:14;;;;;;;8.70;3.20;;;;;;;16.03;42.87;100817.64;129582;1280;114760;-69
2023/04/30 10:32:17;;;;;;;6.30;3.40;;;;;;;15.97;42.81;100815.69;129563;1277;114795;-66
2023/04/30 10:35:28;;;;;;;7.00;2.80;;;;;;;15.92;43.16;100814.90;129611;1280;114713;-69
2023/04/30 10:38:31;;;;;;;7.00;3.00;;;;;;;15.86;43.10;100815.81;129446;1264;114854;-68
2023/04/30 10:41:33;;;;;;;8.80;3.50;;;;;;;15.76;42.80;100819.30;129361;1261;114723;-68
2023/04/30 10:44:38;;;;;;;9.10;2.80;;;;;;;15.62;42.82;100814.36;129504;1280;114726;-68
2023/04/30 10:47:44;;;;;;;9.40;3.20;;;;;;;15.59;43.09;100812.10;129500;1280;115410;-64
2023/04/30 10:50:49;;;;;;;9.20;4.20;;;;;;;15.51;43.02;100810.39;129527;1266;115305;-63
2023/04/30 10:53:53;;;;;;;10.20;3.30;;;;;;;15.45;42.86;100809.34;129531;1258;114973;-68
2023/04/30 10:57:25;;;;;;;5.90;2.90;;;;;;;15.34;42.81;100806.76;129745;1261;115220;-65
2023/04/30 11:00:29;;;;;;;7.50;3.10;;;;;;;15.29;43.49;100801.82;129217;1267;114976;-65
2023/04/30 11:03:34;;;;;;;6.30;2.50;;;;;;;15.30;43.58;100805.38;129083;1269;127829;-67
2023/04/30 11:06:55;;;;;;;;;;;;;;;15.29;43.21;100803.61;129147;1285;114843;-65
2023/04/30 11:09:57;;;;;;;6.40;2.50;;;;;;;15.20;42.97;100799.89;129183;1264;114897;-65
2023/04/30 11:13:04;;;;;;;7.90;2.90;;;;;;;15.15;43.07;100795.85;128941;1269;115004;-65
2023/04/30 11:16:07;;;;;;;5.80;2.60;;;;;;;15.15;43.22;100799.64;129107;1285;114867;-63
2023/04/30 11:19:13;;;;;;;8.50;2.70;;;;;;;15.13;43.00;100797.98;129260;1285;114939;-63
2023/04/30 11:22:18;;;;;;;5.40;2.30;;;;;;;15.03;42.41;100797.10;129039;1285;115235;-65
2023/04/30 11:25:22;;;;;;;8.70;2.80;;;;;;;14.92;42.89;100799.20;129154;1267;115002;-65
2023/04/30 11:28:25;;;;;;;10.30;2.80;;;;;;;14.88;43.09;100800.53;129154;1267;114941;-64
2023/04/30 11:31:33;;;;;;;9.40;2.90;;;;;;;14.86;43.41;100798.65;129098;1267;114851;-64
2023/04/30 11:34:36;;;;;;;7.90;3.00;;;;;;;14.87;43.40;100802.21;129403;1285;127923;-65
2023/04/30 11:37:42;;;;;;;7.90;3.60;;;;;;;14.78;43.11;100800.20;129304;1281;115444;-65
2023/04/30 11:40:47;;;;;;;8.90;3.00;;;;;;;14.77;43.76;100800.66;129304;1264;115231;-65
2023/04/30 11:43:50;;;;;;;9.20;2.70;;;;;;;14.76;43.16;100802.49;129669;1258;114785;-65
2023/04/30 11:46:52;;;;;;;7.10;2.60;;;;;;;14.70;42.94;100799.92;129584;1281;114868;-62
2023/04/30 11:49:56;;;;;;;8.10;2.60;;;;;;;14.65;43.15;100803.84;129488;1280;114733;-66
2023/04/30 11:53:04;;;;;;;4.80;2.00;;;;;;;14.60;43.07;100802.13;129688;1281;115376;-66
2023/04/30 11:56:07;;;;;;;9.40;2.60;;;;;;;14.56;42.59;100796.96;129262;1266;114896;-67
2023/04/30 11:59:09;;;;;;;8.20;2.10;;;;;;;14.53;42.61;100798.73;129492;1263;115159;-66
2023/04/30 12:02:15;;;;;;;6.90;2.10;;;;;;;14.55;42.65;100802.25;129448;1281;114730;-66
2023/04/30 12:05:27;;;;;;;10.20;2.50;;;;;;;14.56;42.48;100803.98;129251;1264;127932;-66
2023/04/30 12:08:29;;;;;;;6.70;2.40;;;;;;;14.54;42.07;100810.91;129196;1270;116426;-65
2023/04/30 12:11:33;;;;;;;3.60;1.60;;;;;;;14.47;41.90;100809.89;129445;1263;114833;-66
2023/04/30 12:14:35;;;;;;;6.10;2.40;;;;;;;14.42;41.87;100805.28;129485;1264;114721;-66
2023/04/30 12:17:38;;;;;;;5.00;2.20;;;;;;;14.47;42.38;100807.73;129492;1261;114710;-67
2023/04/30 12:20:41;;;;;;;9.20;3.00;;;;;;;14.52;42.29;100806.56;129618;1276;114945;-65
2023/04/30 12:23:44;;;;;;;6.10;2.70;;;;;;;14.50;42.49;100809.73;129531;1261;114737;-65
2023/04/30 12:26:46;;;;;;;8.20;2.70;;;;;;;14.47;42.06;100805.05;129542;1264;114834;-66
2023/04/30 12:29:50;;;;;;;9.80;3.00;;;;;;;14.42;42.17;100800.44;129539;1261;115356;-65
2023/04/30 12:32:56;;;;;;;8.50;3.10;;;;;;;14.42;41.98;100798.10;129420;1264;114874;-64
2023/04/30 12:35:58;;;;;;;7.60;2.30;;;;;;;14.42;40.54;100797.95;129523;1262;115436;-65
2023/04/30 12:39:12;;;;;;;3.70;1.90;;;;;;;14.37;40.20;100791.61;129548;1270;115095;-65
2023/04/30 12:42:18;;;;;;;5.90;2.10;;;;;;;14.35;39.27;100794.61;129636;1274;115089;-65
2023/04/30 12:45:52;;;;;;;6.60;2.00;;;;;;;14.34;39.74;100793.38;129530;1261;114820;-66
2023/04/30 12:48:55;;;;;;;3.10;1.90;;;;;;;14.37;40.17;100793.55;129529;1259;114814;-64
2023/04/30 12:52:02;;;;;;;6.30;1.90;;;;;;;14.38;39.85;100794.77;129584;1264;114798;-64
2023/04/30 12:55:19;;;;;;;4.00;2.30;;;;;;;14.38;39.78;100794.80;129486;1280;126960;-64
2023/04/30 12:58:22;;;;;;;7.90;3.10;;;;;;;14.38;39.79;100792.26;129517;1261;116397;-65
2023/04/30 13:01:24;;;;;;;10.70;2.30;;;;;;;14.36;38.60;100794.70;129646;1261;115389;-66
2023/04/30 13:04:28;;;;;;;6.10;2.70;;;;;;;14.30;39.02;100786.98;129454;1261;114863;-65
2023/04/30 13:07:40;;;;;;;3.50;1.80;;;;;;;14.32;39.76;100783.27;129431;1277;114794;-64
2023/04/30 13:10:43;;;;;;;7.90;2.20;;;;;;;14.38;40.19;100781.13;129483;1261;128890;-65
2023/04/30 13:13:45;;;;;;;4.40;1.90;;;;;;;14.43;40.12;100777.38;129500;1261;116206;-65
2023/04/30 13:16:48;;;;;;;3.70;2.10;;;;;;;14.46;38.70;100783.35;129599;1261;114727;-66
2023/04/30 13:19:50;;;;;;;6.70;2.10;;;;;;;14.45;38.58;100781.59;129637;1276;114809;-64
2023/04/30 13:22:52;;;;;;;5.20;1.70;;;;;;;14.44;38.78;100779.67;129369;1280;404782;-66
2023/04/30 13:25:55;;;;;;;5.90;1.70;;;;;;;14.45;39.12;100779.99;129540;1266;114922;-66
2023/04/30 13:28:57;;;;;;;4.30;1.80;;;;;;;14.41;38.07;100779.16;129804;1264;114788;-65
2023/04/30 13:31:59;;;;;;;6.10;1.80;;;;;;;14.36;38.41;100776.00;129591;1261;114803;-65
2023/04/30 13:35:02;;;;;;;8.30;2.10;;;;;;;14.35;38.59;100774.48;129434;1277;114750;-65
2023/04/30 13:38:05;;;;;;;5.10;2.30;;;;;;;14.32;38.31;100774.98;129513;1261;114723;-67
2023/04/30 13:41:07;;;;;;;5.40;2.00;;;;;;;14.33;39.29;100775.85;129508;1261;115075;-66
2023/04/30 13:44:10;;;;;;;10.50;2.60;;;;;;;14.33;39.30;100774.02;129440;1280;114804;-65
2023/04/30 13:47:12;;;;;;;15.70;2.70;;;;;;;14.31;39.16;100774.70;129554;1280;115412;-64
2023/04/30 13:50:14;;;;;;;5.80;2.20;;;;;;;14.33;39.47;100773.70;129314;1280;128766;-64
2023/04/30 13:53:17;;;;;;;6.40;2.10;;;;;;;14.37;40.03;100770.91;129430;1277;114775;-64